sensor_id;sensor_type;location;lat;lon;timestamp;pressure;altitude;pressure_sealevel;temperature;humidity
72975;BME280;61166;54.228;37.632;2023-02-13T00:00:52;99727.25;;;-8.67;nan
72975;BME280;61166;54.228;37.632;2023-02-13T00:03:18;99728.22;;;-8.69;nan
72975;BME280;61166;54.228;37.632;2023-02-13T00:05:45;99725.00;;;-8.73;nan
72975;BME280;61166;54.228;37.632;2023-02-13T00:08:11;99711.28;;;-8.70;nan
72975;BME280;61166;54.228;37.632;2023-02-13T00:10:39;99718.84;;;-8.69;nan
72975;BME280;61166;54.228;37.632;2023-02-13T00:13:05;99716.25;;;-8.84;nan
72975;BME280;61166;54.228;37.632;2023-02-13T00:15:32;99706.06;;;-8.84;nan
72975;BME280;61166;54.228;37.632;2023-02-13T00:18:00;99701.19;;;-8.89;nan
72975;BME280;61166;54.228;37.632;2023-02-13T00:20:26;99704.41;;;-8.85;nan
72975;BME280;61166;54.228;37.632;2023-02-13T00:22:53;99706.66;;;-8.79;nan
72975;BME280;61166;54.228;37.632;2023-02-13T00:25:21;99709.94;;;-8.77;nan
72975;BME280;61166;54.228;37.632;2023-02-13T00:27:50;99708.28;;;-8.78;nan
72975;BME280;61166;54.228;37.632;2023-02-13T00:30:16;99700.50;;;-8.75;nan
72975;BME280;61166;54.228;37.632;2023-02-13T00:32:43;99696.00;;;-8.70;nan
72975;BME280;61166;54.228;37.632;2023-02-13T00:35:09;99709.16;;;-8.62;nan
72975;BME280;61166;54.228;37.632;2023-02-13T00:37:36;99702.28;;;-8.77;nan
72975;BME280;61166;54.228;37.632;2023-02-13T00:40:03;99697.28;;;-8.79;nan
72975;BME280;61166;54.228;37.632;2023-02-13T00:42:29;99693.31;;;-8.84;nan
72975;BME280;61166;54.228;37.632;2023-02-13T00:44:56;99684.69;;;-8.82;nan
72975;BME280;61166;54.228;37.632;2023-02-13T00:47:23;99686.78;;;-8.73;nan
72975;BME280;61166;54.228;37.632;2023-02-13T00:49:49;99693.81;;;-8.78;nan
72975;BME280;61166;54.228;37.632;2023-02-13T00:52:16;99687.38;;;-8.85;nan
72975;BME280;61166;54.228;37.632;2023-02-13T00:54:43;99699.97;;;-8.82;nan
72975;BME280;61166;54.228;37.632;2023-02-13T00:57:10;99694.25;;;-8.70;nan
72975;BME280;61166;54.228;37.632;2023-02-13T00:59:36;99695.66;;;-8.64;nan
72975;BME280;61166;54.228;37.632;2023-02-13T01:02:03;99690.56;;;-8.64;nan
72975;BME280;61166;54.228;37.632;2023-02-13T01:04:29;99685.13;;;-8.74;nan
72975;BME280;61166;54.228;37.632;2023-02-13T01:06:56;99686.34;;;-8.65;nan
72975;BME280;61166;54.228;37.632;2023-02-13T01:09:23;99678.63;;;-8.63;nan
72975;BME280;61166;54.228;37.632;2023-02-13T01:11:50;99678.91;;;-8.68;nan
72975;BME280;61166;54.228;37.632;2023-02-13T01:14:16;99673.44;;;-8.62;nan
72975;BME280;61166;54.228;37.632;2023-02-13T01:16:43;99669.84;;;-8.58;nan
72975;BME280;61166;54.228;37.632;2023-02-13T01:19:09;99672.66;;;-8.47;nan
72975;BME280;61166;54.228;37.632;2023-02-13T01:21:36;99671.09;;;-8.49;nan
72975;BME280;61166;54.228;37.632;2023-02-13T01:24:06;99665.75;;;-8.45;nan
72975;BME280;61166;54.228;37.632;2023-02-13T01:26:32;99662.81;;;-8.37;nan
72975;BME280;61166;54.228;37.632;2023-02-13T01:28:59;99656.22;;;-8.41;nan
72975;BME280;61166;54.228;37.632;2023-02-13T01:31:26;99650.28;;;-8.42;nan
72975;BME280;61166;54.228;37.632;2023-02-13T01:33:56;99658.44;;;-8.35;nan
72975;BME280;61166;54.228;37.632;2023-02-13T01:36:23;99649.63;;;-8.29;nan
72975;BME280;61166;54.228;37.632;2023-02-13T01:38:54;99646.31;;;-8.32;nan
72975;BME280;61166;54.228;37.632;2023-02-13T01:41:23;99640.56;;;-8.19;nan
72975;BME280;61166;54.228;37.632;2023-02-13T01:43:59;99647.00;;;-8.12;nan
72975;BME280;61166;54.228;37.632;2023-02-13T01:46:38;99631.31;;;-8.06;nan
72975;BME280;61166;54.228;37.632;2023-02-13T01:49:14;99635.59;;;-7.91;nan
72975;BME280;61166;54.228;37.632;2023-02-13T01:51:44;99634.44;;;-7.85;nan
72975;BME280;61166;54.228;37.632;2023-02-13T01:54:17;99630.00;;;-7.82;nan
72975;BME280;61166;54.228;37.632;2023-02-13T01:56:48;99628.00;;;-7.77;nan
72975;BME280;61166;54.228;37.632;2023-02-13T02:01:45;99627.38;;;-7.80;nan
72975;BME280;61166;54.228;37.632;2023-02-13T02:04:35;99623.22;;;-7.67;nan
72975;BME280;61166;54.228;37.632;2023-02-13T02:07:13;99618.59;;;-7.60;nan
72975;BME280;61166;54.228;37.632;2023-02-13T02:09:41;99619.16;;;-7.55;nan
72975;BME280;61166;54.228;37.632;2023-02-13T02:12:25;99623.00;;;-7.48;nan
72975;BME280;61166;54.228;37.632;2023-02-13T02:14:54;99613.53;;;-7.32;nan
72975;BME280;61166;54.228;37.632;2023-02-13T02:17:25;99608.09;;;-7.26;nan
72975;BME280;61166;54.228;37.632;2023-02-13T02:26:27;99622.72;;;-7.14;nan
72975;BME280;61166;54.228;37.632;2023-02-13T02:44:44;99609.69;;;-6.95;nan
72975;BME280;61166;54.228;37.632;2023-02-13T03:05:44;99582.34;;;-6.80;nan
72975;BME280;61166;54.228;37.632;2023-02-13T03:08:13;99574.03;;;-6.84;nan
72975;BME280;61166;54.228;37.632;2023-02-13T03:13:11;99573.84;;;-6.81;nan
72975;BME280;61166;54.228;37.632;2023-02-13T03:41:59;99516.34;;;-6.47;nan
72975;BME280;61166;54.228;37.632;2023-02-13T04:22:23;99500.75;;;-5.90;nan
72975;BME280;61166;54.228;37.632;2023-02-13T04:29:43;99480.66;;;-5.83;nan
72975;BME280;61166;54.228;37.632;2023-02-13T04:32:10;99481.78;;;-5.75;nan
72975;BME280;61166;54.228;37.632;2023-02-13T04:34:37;99485.59;;;-5.80;nan
72975;BME280;61166;54.228;37.632;2023-02-13T04:37:04;99489.59;;;-5.89;nan
72975;BME280;61166;54.228;37.632;2023-02-13T04:39:30;99477.81;;;-5.91;nan
72975;BME280;61166;54.228;37.632;2023-02-13T04:41:57;99474.72;;;-5.84;nan
72975;BME280;61166;54.228;37.632;2023-02-13T04:44:23;99478.91;;;-5.83;nan
72975;BME280;61166;54.228;37.632;2023-02-13T04:46:50;99486.69;;;-5.84;nan
72975;BME280;61166;54.228;37.632;2023-02-13T04:49:17;99483.50;;;-5.75;nan
72975;BME280;61166;54.228;37.632;2023-02-13T04:54:10;99490.06;;;-5.71;nan
72975;BME280;61166;54.228;37.632;2023-02-13T04:56:37;99475.94;;;-5.64;nan
72975;BME280;61166;54.228;37.632;2023-02-13T04:59:03;99469.91;;;-5.63;nan
72975;BME280;61166;54.228;37.632;2023-02-13T05:01:30;99463.94;;;-5.63;nan
72975;BME280;61166;54.228;37.632;2023-02-13T05:06:23;99464.66;;;-5.74;nan
72975;BME280;61166;54.228;37.632;2023-02-13T05:08:49;99454.22;;;-5.84;nan
72975;BME280;61166;54.228;37.632;2023-02-13T05:11:16;99454.50;;;-5.76;nan
72975;BME280;61166;54.228;37.632;2023-02-13T05:13:42;99444.38;;;-5.65;nan
72975;BME280;61166;54.228;37.632;2023-02-13T05:16:09;99442.31;;;-5.59;nan
72975;BME280;61166;54.228;37.632;2023-02-13T05:18:36;99445.59;;;-5.57;nan
72975;BME280;61166;54.228;37.632;2023-02-13T05:21:03;99427.56;;;-5.56;nan
72975;BME280;61166;54.228;37.632;2023-02-13T05:23:29;99434.84;;;-5.50;nan
72975;BME280;61166;54.228;37.632;2023-02-13T05:25:56;99459.75;;;-5.52;nan
72975;BME280;61166;54.228;37.632;2023-02-13T05:28:23;99444.56;;;-5.42;nan
72975;BME280;61166;54.228;37.632;2023-02-13T05:30:49;99439.75;;;-5.34;nan
72975;BME280;61166;54.228;37.632;2023-02-13T05:33:16;99424.84;;;-5.16;nan
72975;BME280;61166;54.228;37.632;2023-02-13T05:35:42;99422.03;;;-5.01;nan
72975;BME280;61166;54.228;37.632;2023-02-13T05:38:09;99410.53;;;-4.95;nan
72975;BME280;61166;54.228;37.632;2023-02-13T05:40:36;99409.06;;;-4.86;nan
72975;BME280;61166;54.228;37.632;2023-02-13T05:43:02;99407.84;;;-4.93;nan
72975;BME280;61166;54.228;37.632;2023-02-13T05:45:29;99411.78;;;-5.01;nan
72975;BME280;61166;54.228;37.632;2023-02-13T05:47:56;99411.13;;;-4.91;nan
72975;BME280;61166;54.228;37.632;2023-02-13T05:50:22;99405.88;;;-4.90;nan
72975;BME280;61166;54.228;37.632;2023-02-13T05:52:49;99400.94;;;-4.80;nan
72975;BME280;61166;54.228;37.632;2023-02-13T05:55:16;99405.44;;;-4.60;nan
72975;BME280;61166;54.228;37.632;2023-02-13T05:57:42;99391.66;;;-4.70;nan
72975;BME280;61166;54.228;37.632;2023-02-13T06:00:09;99393.44;;;-4.59;nan
72975;BME280;61166;54.228;37.632;2023-02-13T06:02:36;99386.44;;;-4.57;nan
72975;BME280;61166;54.228;37.632;2023-02-13T06:05:03;99386.00;;;-4.51;nan
72975;BME280;61166;54.228;37.632;2023-02-13T06:07:29;99376.69;;;-4.41;nan
72975;BME280;61166;54.228;37.632;2023-02-13T06:09:56;99371.78;;;-4.44;nan
72975;BME280;61166;54.228;37.632;2023-02-13T06:12:22;99383.59;;;-4.42;nan
72975;BME280;61166;54.228;37.632;2023-02-13T06:14:49;99373.19;;;-4.40;nan
72975;BME280;61166;54.228;37.632;2023-02-13T06:17:16;99366.44;;;-4.41;nan
72975;BME280;61166;54.228;37.632;2023-02-13T06:19:42;99372.09;;;-4.25;nan
72975;BME280;61166;54.228;37.632;2023-02-13T06:22:09;99371.78;;;-4.09;nan
72975;BME280;61166;54.228;37.632;2023-02-13T06:24:35;99366.41;;;-4.06;nan
72975;BME280;61166;54.228;37.632;2023-02-13T06:27:02;99363.13;;;-3.97;nan
72975;BME280;61166;54.228;37.632;2023-02-13T06:29:29;99359.88;;;-3.88;nan
72975;BME280;61166;54.228;37.632;2023-02-13T06:31:55;99361.53;;;-3.76;nan
72975;BME280;61166;54.228;37.632;2023-02-13T06:34:22;99353.81;;;-3.53;nan
72975;BME280;61166;54.228;37.632;2023-02-13T06:36:48;99362.47;;;-3.54;nan
72975;BME280;61166;54.228;37.632;2023-02-13T06:39:15;99358.34;;;-3.35;nan
72975;BME280;61166;54.228;37.632;2023-02-13T06:41:42;99357.50;;;-3.35;nan
72975;BME280;61166;54.228;37.632;2023-02-13T06:44:08;99345.59;;;-3.36;nan
72975;BME280;61166;54.228;37.632;2023-02-13T06:46:35;99354.00;;;-3.34;nan
72975;BME280;61166;54.228;37.632;2023-02-13T06:51:28;99335.41;;;-3.26;nan
72975;BME280;61166;54.228;37.632;2023-02-13T06:53:55;99335.38;;;-3.15;nan
72975;BME280;61166;54.228;37.632;2023-02-13T06:56:21;99333.63;;;-3.04;nan
72975;BME280;61166;54.228;37.632;2023-02-13T06:58:48;99337.34;;;-2.96;nan
72975;BME280;61166;54.228;37.632;2023-02-13T07:01:14;99320.97;;;-2.95;nan
72975;BME280;61166;54.228;37.632;2023-02-13T07:03:41;99323.88;;;-2.89;nan
72975;BME280;61166;54.228;37.632;2023-02-13T07:06:08;99314.34;;;-2.88;nan
72975;BME280;61166;54.228;37.632;2023-02-13T07:08:34;99304.50;;;-2.83;nan
72975;BME280;61166;54.228;37.632;2023-02-13T07:11:01;99305.44;;;-2.84;nan
72975;BME280;61166;54.228;37.632;2023-02-13T07:13:27;99306.16;;;-2.82;nan
72975;BME280;61166;54.228;37.632;2023-02-13T07:15:54;99299.31;;;-2.72;nan
72975;BME280;61166;54.228;37.632;2023-02-13T07:18:21;99298.56;;;-2.63;nan
72975;BME280;61166;54.228;37.632;2023-02-13T07:20:47;99295.22;;;-2.75;nan
72975;BME280;61166;54.228;37.632;2023-02-13T07:23:14;99281.59;;;-2.86;nan
72975;BME280;61166;54.228;37.632;2023-02-13T07:25:40;99286.13;;;-2.79;nan
72975;BME280;61166;54.228;37.632;2023-02-13T07:28:07;99283.69;;;-2.80;nan
72975;BME280;61166;54.228;37.632;2023-02-13T07:30:34;99277.34;;;-2.76;nan
72975;BME280;61166;54.228;37.632;2023-02-13T07:33:01;99282.69;;;-2.68;nan
72975;BME280;61166;54.228;37.632;2023-02-13T07:35:29;99272.38;;;-2.68;nan
72975;BME280;61166;54.228;37.632;2023-02-13T07:37:55;99285.94;;;-2.66;nan
72975;BME280;61166;54.228;37.632;2023-02-13T07:40:22;99290.84;;;-2.63;nan
72975;BME280;61166;54.228;37.632;2023-02-13T07:42:49;99291.31;;;-2.37;nan
72975;BME280;61166;54.228;37.632;2023-02-13T07:45:15;99292.47;;;-2.62;nan
72975;BME280;61166;54.228;37.632;2023-02-13T07:47:42;99286.66;;;-2.64;nan
72975;BME280;61166;54.228;37.632;2023-02-13T07:50:10;99282.88;;;-2.60;nan
72975;BME280;61166;54.228;37.632;2023-02-13T07:52:37;99286.72;;;-2.54;nan
72975;BME280;61166;54.228;37.632;2023-02-13T07:55:05;99281.06;;;-2.48;nan
72975;BME280;61166;54.228;37.632;2023-02-13T07:59:59;99270.03;;;-2.29;nan
72975;BME280;61166;54.228;37.632;2023-02-13T08:02:26;99268.31;;;-2.19;nan
72975;BME280;61166;54.228;37.632;2023-02-13T08:04:52;99256.75;;;-2.04;nan
72975;BME280;61166;54.228;37.632;2023-02-13T08:07:19;99253.34;;;-2.05;nan
72975;BME280;61166;54.228;37.632;2023-02-13T08:09:46;99253.66;;;-1.98;nan
72975;BME280;61166;54.228;37.632;2023-02-13T08:12:12;99247.44;;;-1.86;nan
72975;BME280;61166;54.228;37.632;2023-02-13T08:14:39;99244.22;;;-1.69;nan
72975;BME280;61166;54.228;37.632;2023-02-13T08:17:05;99247.88;;;-1.71;nan
72975;BME280;61166;54.228;37.632;2023-02-13T08:19:32;99239.63;;;-1.65;nan
72975;BME280;61166;54.228;37.632;2023-02-13T08:21:59;99230.50;;;-1.69;nan
72975;BME280;61166;54.228;37.632;2023-02-13T08:24:25;99230.50;;;-1.69;nan
72975;BME280;61166;54.228;37.632;2023-02-13T08:26:52;99226.81;;;-1.86;nan
72975;BME280;61166;54.228;37.632;2023-02-13T08:29:18;99223.22;;;-1.74;nan
72975;BME280;61166;54.228;37.632;2023-02-13T08:31:45;99227.66;;;-1.85;nan
72975;BME280;61166;54.228;37.632;2023-02-13T08:34:12;99219.25;;;-1.78;nan
72975;BME280;61166;54.228;37.632;2023-02-13T08:36:38;99222.22;;;-1.73;nan
72975;BME280;61166;54.228;37.632;2023-02-13T08:39:05;99213.53;;;-1.72;nan
72975;BME280;61166;54.228;37.632;2023-02-13T08:41:32;99203.28;;;-1.43;nan
72975;BME280;61166;54.228;37.632;2023-02-13T08:43:58;99206.97;;;-1.26;nan
72975;BME280;61166;54.228;37.632;2023-02-13T08:46:25;99191.63;;;-1.18;nan
72975;BME280;61166;54.228;37.632;2023-02-13T08:48:51;99184.53;;;-1.06;nan
72975;BME280;61166;54.228;37.632;2023-02-13T08:51:18;99172.56;;;-1.07;nan
72975;BME280;61166;54.228;37.632;2023-02-13T08:53:45;99166.56;;;-0.88;nan
72975;BME280;61166;54.228;37.632;2023-02-13T08:56:11;99152.84;;;-0.79;nan
72975;BME280;61166;54.228;37.632;2023-02-13T08:58:38;99151.34;;;-0.82;nan
72975;BME280;61166;54.228;37.632;2023-02-13T09:01:06;99154.06;;;-0.83;nan
72975;BME280;61166;54.228;37.632;2023-02-13T09:03:33;99151.19;;;-0.80;nan
72975;BME280;61166;54.228;37.632;2023-02-13T09:06:01;99145.53;;;-0.56;nan
72975;BME280;61166;54.228;37.632;2023-02-13T09:08:28;99148.75;;;-0.45;nan
72975;BME280;61166;54.228;37.632;2023-02-13T09:10:57;99146.31;;;-0.46;nan
72975;BME280;61166;54.228;37.632;2023-02-13T09:13:24;99147.38;;;-0.39;nan
72975;BME280;61166;54.228;37.632;2023-02-13T09:15:50;99133.66;;;-0.40;nan
72975;BME280;61166;54.228;37.632;2023-02-13T09:18:17;99146.81;;;-0.60;nan
72975;BME280;61166;54.228;37.632;2023-02-13T09:20:43;99133.63;;;-0.67;nan
72975;BME280;61166;54.228;37.632;2023-02-13T09:23:10;99137.72;;;-0.74;nan
72975;BME280;61166;54.228;37.632;2023-02-13T09:25:37;99137.72;;;-0.64;nan
72975;BME280;61166;54.228;37.632;2023-02-13T09:28:04;99138.66;;;-0.65;nan
72975;BME280;61166;54.228;37.632;2023-02-13T09:30:30;99120.06;;;-0.69;nan
72975;BME280;61166;54.228;37.632;2023-02-13T09:32:57;99118.97;;;-0.76;nan
72975;BME280;61166;54.228;37.632;2023-02-13T09:35:23;99124.94;;;-0.66;nan
72975;BME280;61166;54.228;37.632;2023-02-13T09:37:50;99120.06;;;-0.69;nan
72975;BME280;61166;54.228;37.632;2023-02-13T09:40:22;99119.50;;;-0.63;nan
72975;BME280;61166;54.228;37.632;2023-02-13T09:42:51;99113.56;;;-0.46;nan
72975;BME280;61166;54.228;37.632;2023-02-13T09:45:20;99101.97;;;-0.42;nan
72975;BME280;61166;54.228;37.632;2023-02-13T09:47:47;99092.56;;;-0.33;nan
72975;BME280;61166;54.228;37.632;2023-02-13T09:52:45;99081.50;;;-0.25;nan
72975;BME280;61166;54.228;37.632;2023-02-13T09:55:17;99086.19;;;-0.39;nan
72975;BME280;61166;54.228;37.632;2023-02-13T09:58:53;99074.69;;;-0.26;nan
72975;BME280;61166;54.228;37.632;2023-02-13T10:00:47;99068.13;;;-0.21;nan
72975;BME280;61166;54.228;37.632;2023-02-13T10:03:32;99060.03;;;0.10;nan
72975;BME280;61166;54.228;37.632;2023-02-13T10:06:36;99060.75;;;0.02;nan
72975;BME280;61166;54.228;37.632;2023-02-13T10:09:07;99057.28;;;0.11;nan
72975;BME280;61166;54.228;37.632;2023-02-13T10:12:03;99047.38;;;0.07;nan
72975;BME280;61166;54.228;37.632;2023-02-13T10:17:34;99050.50;;;0.10;nan
72975;BME280;61166;54.228;37.632;2023-02-13T10:22:51;99047.25;;;-0.10;nan
72975;BME280;61166;54.228;37.632;2023-02-13T10:25:24;99037.19;;;0.05;nan
72975;BME280;61166;54.228;37.632;2023-02-13T10:28:09;99037.63;;;0.00;nan
72975;BME280;61166;54.228;37.632;2023-02-13T10:31:02;99028.69;;;0.13;nan
72975;BME280;61166;54.228;37.632;2023-02-13T10:33:37;99025.66;;;0.17;nan
72975;BME280;61166;54.228;37.632;2023-02-13T10:38:43;99024.13;;;0.24;nan
72975;BME280;61166;54.228;37.632;2023-02-13T10:43:52;99010.16;;;0.17;nan
72975;BME280;61166;54.228;37.632;2023-02-13T10:46:26;99007.13;;;0.22;nan
72975;BME280;61166;54.228;37.632;2023-02-13T10:51:58;98994.34;;;0.20;nan
72975;BME280;61166;54.228;37.632;2023-02-13T10:54:39;98994.88;;;0.06;nan
72975;BME280;61166;54.228;37.632;2023-02-13T10:57:14;98979.72;;;0.11;nan
72975;BME280;61166;54.228;37.632;2023-02-13T11:02:32;98979.97;;;0.00;nan
72975;BME280;61166;54.228;37.632;2023-02-13T11:05:01;98979.13;;;0.17;nan
72975;BME280;61166;54.228;37.632;2023-02-13T11:07:33;98976.91;;;0.22;nan
72975;BME280;61166;54.228;37.632;2023-02-13T11:10:13;98971.63;;;0.32;nan
72975;BME280;61166;54.228;37.632;2023-02-13T11:12:40;98977.72;;;0.49;nan
72975;BME280;61166;54.228;37.632;2023-02-13T11:15:39;98966.38;;;0.42;nan
72975;BME280;61166;54.228;37.632;2023-02-13T11:18:19;98962.88;;;0.51;nan
72975;BME280;61166;54.228;37.632;2023-02-13T11:21:10;98959.84;;;0.63;nan
72975;BME280;61166;54.228;37.632;2023-02-13T11:23:44;98955.00;;;0.35;nan
72975;BME280;61166;54.228;37.632;2023-02-13T11:26:29;98956.84;;;0.42;nan
72975;BME280;61166;54.228;37.632;2023-02-13T11:28:58;98945.97;;;0.39;nan
72975;BME280;61166;54.228;37.632;2023-02-13T11:31:35;98948.25;;;0.42;nan
72975;BME280;61166;54.228;37.632;2023-02-13T11:34:32;98944.91;;;0.23;nan
72975;BME280;61166;54.228;37.632;2023-02-13T11:39:51;98940.41;;;0.08;nan
72975;BME280;61166;54.228;37.632;2023-02-13T11:42:30;98940.19;;;0.01;nan
72975;BME280;61166;54.228;37.632;2023-02-13T11:45:00;98941.75;;;0.12;nan
72975;BME280;61166;54.228;37.632;2023-02-13T11:47:37;98945.84;;;-0.04;nan
72975;BME280;61166;54.228;37.632;2023-02-13T11:52:57;98951.47;;;-0.08;nan
72975;BME280;61166;54.228;37.632;2023-02-13T11:55:35;98950.50;;;-0.07;nan
72975;BME280;61166;54.228;37.632;2023-02-13T11:58:20;98947.03;;;-0.16;nan
72975;BME280;61166;54.228;37.632;2023-02-13T12:01:22;98952.50;;;-0.37;nan
72975;BME280;61166;54.228;37.632;2023-02-13T12:04:16;98941.94;;;-0.25;nan
72975;BME280;61166;54.228;37.632;2023-02-13T12:07:04;98940.91;;;-0.15;nan
72975;BME280;61166;54.228;37.632;2023-02-13T12:09:39;98940.03;;;-0.41;nan
72975;BME280;61166;54.228;37.632;2023-02-13T12:12:15;98926.16;;;-0.22;nan
72975;BME280;61166;54.228;37.632;2023-02-13T12:14:44;98928.50;;;-0.11;nan
72975;BME280;61166;54.228;37.632;2023-02-13T12:17:22;98924.88;;;-0.01;nan
72975;BME280;61166;54.228;37.632;2023-02-13T12:19:57;98910.91;;;-0.08;nan
72975;BME280;61166;54.228;37.632;2023-02-13T12:33:26;98907.81;;;-0.11;nan
72975;BME280;61166;54.228;37.632;2023-02-13T12:38:50;98904.56;;;-0.13;nan
72975;BME280;61166;54.228;37.632;2023-02-13T12:44:32;98888.72;;;-0.18;nan
72975;BME280;61166;54.228;37.632;2023-02-13T12:50:01;98858.56;;;-0.10;nan
72975;BME280;61166;54.228;37.632;2023-02-13T12:52:52;98854.50;;;-0.12;nan
72975;BME280;61166;54.228;37.632;2023-02-13T13:09:01;98857.75;;;-0.10;nan
72975;BME280;61166;54.228;37.632;2023-02-13T13:14:34;98859.38;;;-0.09;nan
72975;BME280;61166;54.228;37.632;2023-02-13T13:22:53;98861.91;;;-0.17;nan
72975;BME280;61166;54.228;37.632;2023-02-13T13:25:30;98860.34;;;-0.10;nan
72975;BME280;61166;54.228;37.632;2023-02-13T13:28:04;98858.13;;;-0.05;nan
72975;BME280;61166;54.228;37.632;2023-02-13T13:30:36;98858.56;;;-0.10;nan
72975;BME280;61166;54.228;37.632;2023-02-13T13:33:10;98861.16;;;-0.10;nan
72975;BME280;61166;54.228;37.632;2023-02-13T13:35:45;98852.88;;;-0.13;nan
72975;BME280;61166;54.228;37.632;2023-02-13T13:38:47;98843.91;;;-0.01;nan
72975;BME280;61166;54.228;37.632;2023-02-13T13:42:05;98835.84;;;0.02;nan
72975;BME280;61166;54.228;37.632;2023-02-13T13:49:54;98808.19;;;-0.06;nan
72975;BME280;61166;54.228;37.632;2023-02-13T13:54:53;98819.03;;;-0.02;nan
72975;BME280;61166;54.228;37.632;2023-02-13T13:57:58;98807.88;;;-0.03;nan
72975;BME280;61166;54.228;37.632;2023-02-13T14:00:27;98800.59;;;0.01;nan
72975;BME280;61166;54.228;37.632;2023-02-13T14:05:29;98801.91;;;-0.03;nan
72975;BME280;61166;54.228;37.632;2023-02-13T14:08:51;98802.50;;;-0.09;nan
72975;BME280;61166;54.228;37.632;2023-02-13T14:10:59;98798.97;;;-0.08;nan
72975;BME280;61166;54.228;37.632;2023-02-13T14:13:37;98791.88;;;-0.06;nan
72975;BME280;61166;54.228;37.632;2023-02-13T14:16:08;98794.97;;;-0.03;nan
72975;BME280;61166;54.228;37.632;2023-02-13T14:18:36;98790.03;;;-0.14;nan
72975;BME280;61166;54.228;37.632;2023-02-13T14:21:03;98799.56;;;-0.14;nan
72975;BME280;61166;54.228;37.632;2023-02-13T14:36:46;98791.63;;;-0.21;nan
72975;BME280;61166;54.228;37.632;2023-02-13T14:39:30;98793.91;;;-0.18;nan
72975;BME280;61166;54.228;37.632;2023-02-13T14:41:59;98791.16;;;-0.16;nan
72975;BME280;61166;54.228;37.632;2023-02-13T14:44:45;98785.03;;;-0.15;nan
72975;BME280;61166;54.228;37.632;2023-02-13T14:47:40;98790.16;;;-0.23;nan
72975;BME280;61166;54.228;37.632;2023-02-13T14:50:45;98798.84;;;-0.24;nan
72975;BME280;61166;54.228;37.632;2023-02-13T14:53:26;98787.88;;;-0.26;nan
72975;BME280;61166;54.228;37.632;2023-02-13T14:56:10;98790.44;;;-0.26;nan
72975;BME280;61166;54.228;37.632;2023-02-13T14:58:50;98794.59;;;-0.34;nan
72975;BME280;61166;54.228;37.632;2023-02-13T15:01:51;98788.47;;;-0.32;nan
72975;BME280;61166;54.228;37.632;2023-02-13T15:07:34;98782.09;;;-0.20;nan
72975;BME280;61166;54.228;37.632;2023-02-13T15:12:58;98780.00;;;-0.17;nan
72975;BME280;61166;54.228;37.632;2023-02-13T15:15:29;98772.09;;;-0.15;nan
72975;BME280;61166;54.228;37.632;2023-02-13T15:18:08;98769.88;;;-0.10;nan
72975;BME280;61166;54.228;37.632;2023-02-13T15:20:40;98773.13;;;-0.08;nan
72975;BME280;61166;54.228;37.632;2023-02-13T15:23:19;98786.69;;;-0.06;nan
72975;BME280;61166;54.228;37.632;2023-02-13T15:25:55;98785.06;;;-0.07;nan
72975;BME280;61166;54.228;37.632;2023-02-13T15:28:22;98769.56;;;-0.07;nan
72975;BME280;61166;54.228;37.632;2023-02-13T15:31:04;98774.44;;;-0.04;nan
72975;BME280;61166;54.228;37.632;2023-02-13T15:33:52;98763.28;;;-0.05;nan
72975;BME280;61166;54.228;37.632;2023-02-13T15:36:21;98761.34;;;-0.03;nan
72975;BME280;61166;54.228;37.632;2023-02-13T15:38:48;98751.47;;;-0.07;nan
72975;BME280;61166;54.228;37.632;2023-02-13T15:41:21;98757.81;;;-0.02;nan
72975;BME280;61166;54.228;37.632;2023-02-13T15:43:50;98743.72;;;-0.07;nan
72975;BME280;61166;54.228;37.632;2023-02-13T15:46:18;98741.03;;;-0.23;nan
72975;BME280;61166;54.228;37.632;2023-02-13T15:48:46;98726.50;;;-0.24;nan
72975;BME280;61166;54.228;37.632;2023-02-13T15:51:21;98729.28;;;-0.18;nan
72975;BME280;61166;54.228;37.632;2023-02-13T15:53:53;98713.47;;;-0.15;nan
72975;BME280;61166;54.228;37.632;2023-02-13T15:56:21;98702.94;;;-0.21;nan
72975;BME280;61166;54.228;37.632;2023-02-13T15:58:48;98709.47;;;-0.09;nan
72975;BME280;61166;54.228;37.632;2023-02-13T16:01:16;98701.56;;;-0.08;nan
72975;BME280;61166;54.228;37.632;2023-02-13T16:03:45;98700.75;;;-0.08;nan
72975;BME280;61166;54.228;37.632;2023-02-13T16:06:14;98689.56;;;-0.17;nan
72975;BME280;61166;54.228;37.632;2023-02-13T16:08:51;98680.88;;;-0.08;nan
72975;BME280;61166;54.228;37.632;2023-02-13T16:11:24;98677.63;;;-0.10;nan
72975;BME280;61166;54.228;37.632;2023-02-13T16:16:29;98665.19;;;-0.14;nan
72975;BME280;61166;54.228;37.632;2023-02-13T16:18:58;98659.50;;;-0.18;nan
72975;BME280;61166;54.228;37.632;2023-02-13T16:21:26;98636.28;;;-0.10;nan
72975;BME280;61166;54.228;37.632;2023-02-13T16:24:01;98644.16;;;-0.19;nan
72975;BME280;61166;54.228;37.632;2023-02-13T16:26:29;98653.22;;;-0.15;nan
72975;BME280;61166;54.228;37.632;2023-02-13T16:28:56;98639.84;;;-0.11;nan
72975;BME280;61166;54.228;37.632;2023-02-13T16:31:22;98646.44;;;-0.16;nan
72975;BME280;61166;54.228;37.632;2023-02-13T16:33:49;98646.94;;;-0.13;nan
72975;BME280;61166;54.228;37.632;2023-02-13T16:36:25;98653.53;;;-0.18;nan
72975;BME280;61166;54.228;37.632;2023-02-13T16:38:52;98652.41;;;-0.16;nan
72975;BME280;61166;54.228;37.632;2023-02-13T16:43:50;98637.56;;;-0.14;nan
72975;BME280;61166;54.228;37.632;2023-02-13T16:54:03;98590.72;;;-0.11;nan
72975;BME280;61166;54.228;37.632;2023-02-13T16:56:44;98582.81;;;-0.09;nan
72975;BME280;61166;54.228;37.632;2023-02-13T17:01:44;98574.06;;;-0.16;nan
72975;BME280;61166;54.228;37.632;2023-02-13T17:04:23;98600.22;;;-0.19;nan
72975;BME280;61166;54.228;37.632;2023-02-13T17:06:53;98586.19;;;-0.17;nan
72975;BME280;61166;54.228;37.632;2023-02-13T17:09:20;98581.19;;;-0.18;nan
72975;BME280;61166;54.228;37.632;2023-02-13T17:11:51;98572.44;;;-0.17;nan
72975;BME280;61166;54.228;37.632;2023-02-13T17:14:19;98570.69;;;-0.17;nan
72975;BME280;61166;54.228;37.632;2023-02-13T17:16:46;98568.72;;;-0.23;nan
72975;BME280;61166;54.228;37.632;2023-02-13T17:19:13;98577.25;;;-0.30;nan
72975;BME280;61166;54.228;37.632;2023-02-13T17:21:40;98565.00;;;-0.20;nan
72975;BME280;61166;54.228;37.632;2023-02-13T17:24:08;98562.13;;;-0.17;nan
72975;BME280;61166;54.228;37.632;2023-02-13T17:26:38;98555.66;;;-0.21;nan
72975;BME280;61166;54.228;37.632;2023-02-13T17:29:05;98549.19;;;-0.17;nan